Карточка аэропорта USSS

Внимание!
Информация на этой странице в стадии наполнения.
Если вы не увидели какой-то информации, или заметили неточность - пожалуйста сообщите нам!
Спасибо!
Команда RU-STAFF
Название аэропортаКольцово
Название аэропорта (англ.)Koltsovo
Превышение766 ft. (233.5 m.)
Координаты56°44.586', 60°48.186'
Высота перехода900m
Эшелон переходаQFE>=739mm:FL050; QFE 712mm-738mm:FL060; QFE<=712mm:FL70
Коды ответчика5520-5557
Зона ОрВДЕкатеринбург РПИ (USSV)
Данные METARUSSS 020630Z 00000MPS 5000 BR FEW003 M25/M27 Q1052 R26L/81//60 TEMPO 3100 BR SCT002 RMK QFE768/1024
Проноз погоды (TAF)USSS 020451Z 0206/0306 36003G08MPS 6000 NSC BECMG 0217/0219 27003MPS
NOTAMshow/hide NOTAM
AWOS   TABLE

Информация о ВПП

ВПП Длина ВПП (м.) Покрытие Курс ВПП Частота ILS
08R3026Бетон79109.9
26L3026Бетон259109.5
08L3004Асфальтобетон75111.7
26R3004Асфальтобетон255110.5

Диспетчерские позиции

Позывной Наименование органа УВД Частота
USSSFM1Машина сопровождения119.000
USSS_APPКольцово-Подход125.9
USSS_ATIS_APPКольцово АТИС127.850
USSS_GNDКольцово-Руление119.0
USSS_R_APPКольцово-Круг118.7
USSS_TWRКольцово-Старт124.3
USSV_FSS_CTRКольцово Транзит131.900



Спутниковое изображение